San Eduardo, Argentina
Current Conditions -  °F | °C
As of 8:00 PM on Sunday 21 Dec 2014 (Local Time) from SAAR Reporting Station
Overcast Overcast  
Wind Chill: 21°   Ceiling: 10000
Heat Index: 21°   Visibility: 6mi
Dew Point:   Wind: 12mph
Humidity: 35%   Direction: 200°SSW
Pressure: 29.85"   Gusts: NA
Location:  33.88°S, 62.12°W
Report Text: SAAR 212300Z 20010KT 9999 FEW030 BKN100OVC200 21/05 Q1011
Loading
Personal Weather Stations






























Interactive Weather Map New forecast layout! Learn more

10-Day Weather Forecast

Advertisements
Track Severe Weather on mobile